createdAt,value
2022-11-28T00:01:39.962Z,77.67
2022-11-28T00:04:08.293Z,78.57
2022-11-28T00:06:41.416Z,82.14
2022-11-28T00:09:09.281Z,81.54
2022-11-28T00:11:37.328Z,80.92
2022-11-28T00:14:04.715Z,79.57
2022-11-28T00:16:32.623Z,77.97
2022-11-28T00:19:01.342Z,79.20
2022-11-28T00:21:29.324Z,78.79
2022-11-28T00:23:57.507Z,78.90
2022-11-28T00:26:45.044Z,78.35
2022-11-28T00:29:12.659Z,78.76
2022-11-28T00:31:44.415Z,78.84
2022-11-28T00:34:13.573Z,78.97
2022-11-28T00:36:42.382Z,80.92
2022-11-28T00:39:09.832Z,81.89
2022-11-28T00:41:37.162Z,78.49
2022-11-28T00:44:04.777Z,78.50
2022-11-28T00:46:32.106Z,77.50
2022-11-28T00:48:59.669Z,79.82
2022-11-28T00:51:29.918Z,79.67
2022-11-28T00:53:59.278Z,78.07
2022-11-28T00:56:30.791Z,78.45
2022-11-28T00:58:58.742Z,79.63
2022-11-28T01:01:34.775Z,79.05
2022-11-28T01:04:04.966Z,79.10
2022-11-28T01:06:38.598Z,79.53
2022-11-28T01:09:11.325Z,80.21
2022-11-28T01:11:39.868Z,81.49
2022-11-28T01:14:08.993Z,79.26
2022-11-28T01:16:36.573Z,78.68
2022-11-28T01:19:04.048Z,79.70
2022-11-28T01:21:31.807Z,79.35
2022-11-28T01:23:59.225Z,84.10
2022-11-28T01:26:28.655Z,79.99
2022-11-28T01:28:56.813Z,81.18
2022-11-28T01:31:26.569Z,83.64
2022-11-28T01:33:54.144Z,82.28
2022-11-28T01:36:22.485Z,80.41
2022-11-28T01:38:50.016Z,80.55
2022-11-28T01:41:20.434Z,81.08
2022-11-28T01:44:01.260Z,80.26
2022-11-28T01:46:29.698Z,79.45
2022-11-28T01:49:17.900Z,78.61
2022-11-28T01:51:48.583Z,81.42
2022-11-28T01:54:16.880Z,81.97
2022-11-28T01:57:23.731Z,79.85
2022-11-28T02:00:06.568Z,81.86
2022-11-28T02:02:52.558Z,81.88
2022-11-28T02:05:21.418Z,82.95
2022-11-28T02:07:49.181Z,82.96
2022-11-28T02:10:25.945Z,80.67
2022-11-28T02:13:02.967Z,82.04
2022-11-28T02:15:44.259Z,80.55
2022-11-28T02:18:36.664Z,79.49
2022-11-28T02:21:24.929Z,80.98
2022-11-28T02:24:11.567Z,80.23
2022-11-28T02:27:03.574Z,78.75
2022-11-28T02:29:37.215Z,79.57
2022-11-28T02:32:10.344Z,80.71
2022-11-28T02:34:52.831Z,78.76
2022-11-28T02:37:23.167Z,80.40
2022-11-28T02:40:00.563Z,80.69
2022-11-28T02:42:43.706Z,82.76
2022-11-28T02:45:16.818Z,82.28
2022-11-28T02:47:49.010Z,82.50
2022-11-28T02:50:26.851Z,80.89
2022-11-28T02:52:59.615Z,80.04
2022-11-28T02:55:27.729Z,80.07
2022-11-28T02:57:55.285Z,82.26
2022-11-28T03:00:29.388Z,81.10
2022-11-28T03:03:23.379Z,84.23
2022-11-28T03:06:16.248Z,84.72
2022-11-28T03:09:10.552Z,83.46
2022-11-28T03:12:02.934Z,84.39
2022-11-28T03:14:36.464Z,86.12
2022-11-28T03:17:47.207Z,86.72
2022-11-28T03:20:52.572Z,86.25
2022-11-28T03:23:23.894Z,86.14
2022-11-28T03:26:00.188Z,88.77
2022-11-28T03:28:49.278Z,89.23
2022-11-28T03:31:22.901Z,88.32
2022-11-28T03:33:58.607Z,86.85
2022-11-28T03:36:31.927Z,87.21
2022-11-28T03:39:09.870Z,84.14
2022-11-28T03:41:51.176Z,87.52
2022-11-28T03:44:23.515Z,89.79
2022-11-28T03:46:52.020Z,84.28
2022-11-28T03:49:27.744Z,82.60
2022-11-28T03:51:59.043Z,82.68
2022-11-28T03:54:41.843Z,82.36
2022-11-28T03:57:37.316Z,81.89
2022-11-28T04:00:07.686Z,84.23
2022-11-28T04:03:18.434Z,84.67
2022-11-28T04:05:54.217Z,85.13
2022-11-28T04:08:27.523Z,84.04
2022-11-28T04:11:24.399Z,83.02
2022-11-28T04:13:58.382Z,79.46
2022-11-28T04:16:34.929Z,84.51
2022-11-28T04:19:10.076Z,80.36
2022-11-28T04:21:45.079Z,81.50
2022-11-28T04:24:18.701Z,81.92
2022-11-28T04:26:52.447Z,81.27
2022-11-28T04:29:23.201Z,80.33
2022-11-28T04:31:53.272Z,82.60
2022-11-28T04:34:21.232Z,80.94
2022-11-28T04:36:49.406Z,82.18
2022-11-28T04:39:22.928Z,80.68
2022-11-28T04:41:53.873Z,79.96
2022-11-28T04:44:47.644Z,82.62
2022-11-28T04:47:15.503Z,78.37
2022-11-28T04:49:43.109Z,79.77
2022-11-28T04:52:15.083Z,80.92
2022-11-28T04:54:51.467Z,81.99
2022-11-28T04:57:50.683Z,85.16
2022-11-28T05:00:22.123Z,86.22
2022-11-28T05:02:51.113Z,82.99
2022-11-28T05:05:22.725Z,82.33
2022-11-28T05:07:50.361Z,81.24
2022-11-28T05:10:18.495Z,83.07
2022-11-28T05:12:46.129Z,81.57
2022-11-28T05:15:18.916Z,81.65
2022-11-28T05:17:46.969Z,79.75
2022-11-28T05:20:14.727Z,79.87
2022-11-28T05:22:42.106Z,81.14
2022-11-28T05:25:09.544Z,79.13
2022-11-28T05:27:37.415Z,77.12
2022-11-28T05:30:06.686Z,79.54
2022-11-28T05:32:34.075Z,80.53
2022-11-28T05:35:01.705Z,81.03
2022-11-28T05:37:29.081Z,84.06
2022-11-28T05:39:56.511Z,83.27
2022-11-28T05:42:25.853Z,84.83
2022-11-28T05:44:53.172Z,81.45
2022-11-28T05:47:20.599Z,82.51
2022-11-28T05:49:48.185Z,78.72
2022-11-28T05:52:15.513Z,79.87
2022-11-28T05:54:42.835Z,83.28
2022-11-28T05:57:10.451Z,79.29
2022-11-28T05:59:37.810Z,78.89
2022-11-28T06:02:05.224Z,81.00
2022-11-28T06:04:32.960Z,80.06
2022-11-28T06:07:00.299Z,78.70
2022-11-28T06:09:27.643Z,78.74
2022-11-28T06:11:55.286Z,82.20
2022-11-28T06:14:22.657Z,80.21
2022-11-28T06:16:50.153Z,82.25
2022-11-28T06:19:18.085Z,80.12
2022-11-28T06:24:30.655Z,76.73
2022-11-28T06:26:58.000Z,78.67
2022-11-28T06:29:25.326Z,81.18
2022-11-28T06:31:53.140Z,80.54
2022-11-28T06:34:20.509Z,79.80
2022-11-28T06:36:47.956Z,79.61
2022-11-28T06:39:16.779Z,79.48
2022-11-28T06:41:44.248Z,77.47
2022-11-28T06:44:15.874Z,75.05
2022-11-28T06:46:43.993Z,76.24
2022-11-28T06:49:13.070Z,77.40
2022-11-28T06:51:41.242Z,75.99
2022-11-28T06:54:10.007Z,74.81
2022-11-28T06:56:37.586Z,77.64
2022-11-28T06:59:05.174Z,77.42
2022-11-28T07:01:34.338Z,78.88
2022-11-28T07:04:02.160Z,81.08
2022-11-28T07:06:30.081Z,84.31
2022-11-28T07:08:58.917Z,82.76
2022-11-28T07:11:31.780Z,80.68
2022-11-28T07:14:02.148Z,81.22
2022-11-28T07:16:33.912Z,78.81
2022-11-28T07:19:01.751Z,78.57
2022-11-28T07:21:30.234Z,78.88
2022-11-28T07:23:58.969Z,77.18
2022-11-28T07:26:26.729Z,76.49
2022-11-28T07:28:56.097Z,78.10
2022-11-28T07:31:29.327Z,76.45
2022-11-28T07:33:57.003Z,78.61
2022-11-28T07:36:26.326Z,78.71
2022-11-28T07:39:14.102Z,78.93
2022-11-28T07:41:41.718Z,79.87
2022-11-28T07:44:10.043Z,78.05
2022-11-28T07:46:39.093Z,79.27
2022-11-28T07:49:06.754Z,77.70
2022-11-28T07:51:34.292Z,77.93
2022-11-28T07:54:03.163Z,76.80
2022-11-28T07:57:10.320Z,78.37
2022-11-28T07:59:21.265Z,76.62
2022-11-28T08:01:48.944Z,77.98
2022-11-28T08:04:16.661Z,77.59
2022-11-28T08:06:44.596Z,75.48
2022-11-28T08:09:12.221Z,79.20
2022-11-28T08:11:40.388Z,78.43
2022-11-28T08:14:07.798Z,78.98
2022-11-28T08:16:36.664Z,80.20
2022-11-28T08:19:04.297Z,79.98
2022-11-28T08:21:35.450Z,78.01
2022-11-28T08:24:03.959Z,74.53
2022-11-28T08:26:32.563Z,78.51
2022-11-28T08:29:01.541Z,76.82
2022-11-28T08:31:31.547Z,77.57
2022-11-28T08:34:01.348Z,78.24
2022-11-28T08:36:29.457Z,77.44
2022-11-28T08:39:09.855Z,77.01
2022-11-28T08:41:44.944Z,79.34
2022-11-28T08:44:12.461Z,78.38
2022-11-28T08:46:39.829Z,77.28
2022-11-28T08:49:07.569Z,75.84
2022-11-28T08:51:34.895Z,75.32
2022-11-28T08:54:02.209Z,75.67
2022-11-28T08:56:29.817Z,76.54
2022-11-28T08:58:57.147Z,74.50
2022-11-28T09:01:25.940Z,74.49
2022-11-28T09:03:54.809Z,75.40
2022-11-28T09:06:22.994Z,75.29
2022-11-28T09:08:51.330Z,75.78
2022-11-28T09:11:21.160Z,75.39
2022-11-28T09:13:48.681Z,73.27
2022-11-28T09:16:16.392Z,73.84
2022-11-28T09:18:44.042Z,72.82
2022-11-28T09:21:13.004Z,71.56
2022-11-28T09:23:41.759Z,72.65
2022-11-28T09:26:11.380Z,71.90
2022-11-28T09:28:38.858Z,69.52
2022-11-28T09:31:06.815Z,69.44
2022-11-28T09:33:35.565Z,72.45
2022-11-28T09:36:11.737Z,71.28
2022-11-28T09:38:39.891Z,70.92
2022-11-28T09:41:28.924Z,71.70
2022-11-28T09:44:24.187Z,70.95
2022-11-28T09:46:56.371Z,70.74
2022-11-28T09:49:42.117Z,69.66
2022-11-28T09:52:20.676Z,72.04
2022-11-28T09:55:00.511Z,69.14
2022-11-28T09:57:56.056Z,68.40
2022-11-28T10:00:38.972Z,69.28
2022-11-28T10:03:14.816Z,68.30
2022-11-28T10:06:08.504Z,70.51
2022-11-28T10:09:35.274Z,69.90
2022-11-28T10:12:13.602Z,69.28
2022-11-28T10:15:08.729Z,71.99
2022-11-28T10:17:48.032Z,74.34
2022-11-28T10:20:19.384Z,72.40
2022-11-28T10:22:52.301Z,71.70
2022-11-28T10:25:29.500Z,70.82
2022-11-28T10:27:57.570Z,70.43
2022-11-28T10:30:27.132Z,71.21
2022-11-28T10:33:23.423Z,70.35
2022-11-28T10:35:55.430Z,69.35
2022-11-28T10:38:27.340Z,71.00
2022-11-28T10:41:06.745Z,67.88
2022-11-28T10:43:46.460Z,69.18
2022-11-28T10:46:20.384Z,69.47
2022-11-28T10:49:10.600Z,67.40
2022-11-28T10:52:08.052Z,68.69
2022-11-28T10:55:03.358Z,69.61
2022-11-28T10:57:35.371Z,69.23
2022-11-28T11:00:12.251Z,69.41
2022-11-28T11:03:02.258Z,68.60
2022-11-28T11:05:37.044Z,69.75
2022-11-28T11:08:05.561Z,67.53
2022-11-28T11:10:40.482Z,67.32
2022-11-28T11:13:26.404Z,68.33
2022-11-28T11:16:01.245Z,67.50
2022-11-28T11:18:31.986Z,69.24
2022-11-28T11:21:20.917Z,68.53
2022-11-28T11:23:49.537Z,68.29
2022-11-28T11:26:23.663Z,66.53
2022-11-28T11:28:51.886Z,68.20
2022-11-28T11:31:25.136Z,67.44
2022-11-28T11:34:15.072Z,66.44
2022-11-28T11:36:42.697Z,67.86
2022-11-28T11:39:13.257Z,69.21
2022-11-28T11:41:45.660Z,67.14
2022-11-28T11:44:26.232Z,67.99
2022-11-28T11:47:05.276Z,68.19
2022-11-28T11:49:46.208Z,69.24
2022-11-28T11:52:13.985Z,68.37
2022-11-28T11:54:56.888Z,69.57
2022-11-28T11:57:37.361Z,68.05
2022-11-28T12:00:07.551Z,70.51
2022-11-28T12:02:46.957Z,70.94
2022-11-28T12:05:18.334Z,70.32
2022-11-28T12:07:50.348Z,68.36
2022-11-28T12:10:23.566Z,69.34
2022-11-28T12:12:52.567Z,68.46
2022-11-28T12:15:40.578Z,69.13
2022-11-28T12:18:15.587Z,70.34
2022-11-28T12:20:55.417Z,67.81
2022-11-28T12:23:52.815Z,69.70
2022-11-28T12:26:24.702Z,69.64
2022-11-28T12:29:30.279Z,68.29
2022-11-28T12:32:19.735Z,70.17
2022-11-28T12:34:57.765Z,70.39
2022-11-28T12:37:48.358Z,70.90
2022-11-28T12:40:38.321Z,68.17
2022-11-28T12:43:26.425Z,70.75
2022-11-28T12:46:06.127Z,68.71
2022-11-28T12:48:39.804Z,68.85
2022-11-28T12:51:17.958Z,69.51
2022-11-28T12:53:57.619Z,68.70
2022-11-28T12:56:42.815Z,68.59
2022-11-28T12:59:10.369Z,69.37
2022-11-28T13:02:01.364Z,69.23
2022-11-28T13:04:42.841Z,68.49
2022-11-28T13:07:17.954Z,68.93
2022-11-28T13:10:15.496Z,69.91
2022-11-28T13:12:59.270Z,69.04
2022-11-28T13:15:51.858Z,70.36
2022-11-28T13:18:46.118Z,69.86
2022-11-28T13:21:18.861Z,67.62
2022-11-28T13:23:49.054Z,68.94
2022-11-28T13:26:59.136Z,69.78
2022-11-28T13:29:44.724Z,68.84
2022-11-28T13:32:35.367Z,69.85
2022-11-28T13:35:03.600Z,68.42
2022-11-28T13:40:42.720Z,69.58
2022-11-28T13:43:24.867Z,70.22
2022-11-28T13:49:06.060Z,72.22
2022-11-28T13:51:31.960Z,70.86
2022-11-28T13:54:18.895Z,69.02
2022-11-28T13:56:47.931Z,70.64
2022-11-28T13:59:18.915Z,70.02
2022-11-28T14:01:52.566Z,69.81
2022-11-28T14:04:20.916Z,71.28
2022-11-28T14:06:52.201Z,70.36
2022-11-28T14:10:08.709Z,69.79
2022-11-28T14:12:50.874Z,71.58
2022-11-28T14:15:32.893Z,72.37
2022-11-28T14:18:55.092Z,72.32
2022-11-28T14:21:38.761Z,72.14
2022-11-28T14:24:20.496Z,74.25
2022-11-28T14:26:57.274Z,72.55
2022-11-28T14:29:28.741Z,72.30
2022-11-28T14:32:27.864Z,72.75
2022-11-28T14:34:46.756Z,72.74
2022-11-28T14:37:52.092Z,72.86
2022-11-28T14:40:56.882Z,73.27
2022-11-28T14:43:24.582Z,73.71
2022-11-28T14:45:52.683Z,72.56
2022-11-28T14:48:23.181Z,72.18
2022-11-28T14:50:59.086Z,74.14
2022-11-28T14:53:45.861Z,71.75
2022-11-28T14:56:24.076Z,74.54
2022-11-28T14:58:56.481Z,72.93
2022-11-28T15:01:30.856Z,73.92
2022-11-28T15:04:17.642Z,73.25
2022-11-28T15:06:48.031Z,73.00
2022-11-28T15:09:43.747Z,72.78
2022-11-28T15:12:26.762Z,74.02
2022-11-28T15:14:57.876Z,73.97
2022-11-28T15:17:30.682Z,75.59
2022-11-28T15:19:59.298Z,77.29
2022-11-28T15:22:39.039Z,76.65
2022-11-28T15:25:26.007Z,74.75
2022-11-28T15:27:55.450Z,75.36
2022-11-28T15:30:26.864Z,76.93
2022-11-28T15:33:00.583Z,77.29
2022-11-28T15:35:28.626Z,76.59
2022-11-28T15:37:58.100Z,77.81
2022-11-28T15:40:29.333Z,78.36
2022-11-28T15:42:57.141Z,76.88
2022-11-28T15:45:27.099Z,78.98
2022-11-28T15:47:55.892Z,78.56
2022-11-28T15:50:26.371Z,77.62
2022-11-28T15:52:55.591Z,77.24
2022-11-28T15:55:24.431Z,78.35
2022-11-28T15:57:52.066Z,78.51
2022-11-28T16:00:21.896Z,78.74
2022-11-28T16:02:49.776Z,79.00
2022-11-28T16:05:21.732Z,79.44
2022-11-28T16:07:51.275Z,78.28
2022-11-28T16:10:38.011Z,78.61
2022-11-28T16:13:12.068Z,76.86
2022-11-28T16:15:39.999Z,76.76
2022-11-28T16:18:08.256Z,77.88
2022-11-28T16:20:37.049Z,78.45
2022-11-28T16:23:10.410Z,77.33
2022-11-28T16:25:38.884Z,79.01
2022-11-28T16:28:36.971Z,78.81
2022-11-28T16:31:18.373Z,78.24
2022-11-28T16:33:47.805Z,78.34
2022-11-28T16:36:20.123Z,78.90
2022-11-28T16:38:49.520Z,79.07
2022-11-28T16:41:20.869Z,77.60
2022-11-28T16:44:15.905Z,79.60
2022-11-28T16:46:55.201Z,79.75
2022-11-28T16:49:31.860Z,78.94
2022-11-28T16:52:21.551Z,79.04
2022-11-28T16:55:13.917Z,78.69
2022-11-28T16:57:46.471Z,77.24
2022-11-28T17:00:15.082Z,77.12
2022-11-28T17:02:43.680Z,79.20
2022-11-28T17:05:12.504Z,78.33
2022-11-28T17:07:41.545Z,79.81
2022-11-28T17:10:13.197Z,79.96
2022-11-28T17:12:41.926Z,79.13
2022-11-28T17:15:15.999Z,80.51
2022-11-28T17:17:44.364Z,77.33
2022-11-28T17:20:13.243Z,78.98
2022-11-28T17:22:46.915Z,78.08
2022-11-28T17:25:19.914Z,77.53
2022-11-28T17:27:48.432Z,80.71
2022-11-28T17:30:18.939Z,79.99
2022-11-28T17:32:48.373Z,81.06
2022-11-28T17:35:20.366Z,79.55
2022-11-28T17:37:48.108Z,79.30
2022-11-28T17:40:34.296Z,79.32
2022-11-28T17:43:05.645Z,79.62
2022-11-28T17:45:37.739Z,82.85
2022-11-28T17:48:08.158Z,81.63
2022-11-28T17:50:36.846Z,80.52
2022-11-28T17:53:04.949Z,79.25
2022-11-28T17:55:33.863Z,79.58
2022-11-28T17:58:03.192Z,78.63
2022-11-28T18:00:33.142Z,79.80
2022-11-28T18:03:01.351Z,79.80
2022-11-28T18:05:29.231Z,81.31
2022-11-28T18:07:57.285Z,81.87
2022-11-28T18:10:25.535Z,80.97
2022-11-28T18:12:53.456Z,81.71
2022-11-28T18:15:21.903Z,81.72
2022-11-28T18:17:50.255Z,82.43
2022-11-28T18:20:20.421Z,80.01
2022-11-28T18:22:48.408Z,78.87
2022-11-28T18:25:16.747Z,79.43
2022-11-28T18:27:44.795Z,78.89
2022-11-28T18:30:15.073Z,78.81
2022-11-28T18:32:44.868Z,79.92
2022-11-28T18:35:12.854Z,79.96
2022-11-28T18:37:44.047Z,80.86
2022-11-28T18:40:12.628Z,80.79
2022-11-28T18:42:45.148Z,79.35
2022-11-28T18:45:13.826Z,80.95
2022-11-28T18:47:42.956Z,82.51
2022-11-28T18:50:12.971Z,80.47
2022-11-28T18:52:41.311Z,81.99
2022-11-28T18:55:11.022Z,79.98
2022-11-28T18:57:39.079Z,80.70
2022-11-28T19:00:08.262Z,80.90
2022-11-28T19:02:36.637Z,81.02
2022-11-28T19:05:04.906Z,81.17
2022-11-28T19:07:33.410Z,82.62
2022-11-28T19:10:01.651Z,80.97
2022-11-28T19:12:29.570Z,81.44
2022-11-28T19:15:02.124Z,82.13
2022-11-28T19:17:30.882Z,80.35
2022-11-28T19:19:58.684Z,81.38
2022-11-28T19:22:26.473Z,80.54
2022-11-28T19:24:54.479Z,80.24
2022-11-28T19:27:22.986Z,82.36
2022-11-28T19:29:51.960Z,80.62
2022-11-28T19:32:20.007Z,82.50
2022-11-28T19:34:53.224Z,81.46
2022-11-28T19:37:22.105Z,81.98
2022-11-28T19:39:50.302Z,82.90
2022-11-28T19:42:18.591Z,81.62
2022-11-28T19:44:46.669Z,83.63
2022-11-28T19:47:15.901Z,81.77
2022-11-28T19:49:44.178Z,82.27
2022-11-28T19:52:11.872Z,83.31
2022-11-28T19:54:40.291Z,83.40
2022-11-28T19:57:11.658Z,82.98
2022-11-28T19:59:39.886Z,84.06
2022-11-28T20:02:09.597Z,84.96
2022-11-28T20:04:38.807Z,84.62
2022-11-28T20:07:08.194Z,84.95
2022-11-28T20:09:36.571Z,85.92
2022-11-28T20:12:05.749Z,85.31
2022-11-28T20:14:39.815Z,87.15
2022-11-28T20:17:08.264Z,86.28
2022-11-28T20:19:37.725Z,85.46
2022-11-28T20:22:05.617Z,86.82
2022-11-28T20:24:34.106Z,89.18
2022-11-28T20:27:02.083Z,87.35
2022-11-28T20:29:30.690Z,86.27
2022-11-28T20:31:58.659Z,84.05
2022-11-28T20:34:27.345Z,85.02
2022-11-28T20:36:55.417Z,83.89
2022-11-28T20:39:24.717Z,84.33
2022-11-28T20:41:53.921Z,85.85
2022-11-28T20:44:21.954Z,86.93
2022-11-28T20:46:50.489Z,86.32
2022-11-28T20:49:18.853Z,87.90
2022-11-28T20:51:47.176Z,87.94
2022-11-28T20:54:15.814Z,87.54
2022-11-28T20:57:19.797Z,85.92
2022-11-28T20:59:33.440Z,86.29
2022-11-28T21:02:01.394Z,85.77
2022-11-28T21:04:29.111Z,85.53
2022-11-28T21:06:57.107Z,85.18
2022-11-28T21:09:28.648Z,86.04
2022-11-28T21:11:59.036Z,86.89
2022-11-28T21:14:30.147Z,87.58
2022-11-28T21:16:58.530Z,87.89
2022-11-28T21:19:26.388Z,86.15
2022-11-28T21:21:55.845Z,87.81
2022-11-28T21:24:23.813Z,87.65
2022-11-28T21:26:54.400Z,86.83
2022-11-28T21:29:23.599Z,85.68
2022-11-28T21:31:52.111Z,86.74
2022-11-28T21:34:19.832Z,86.09
2022-11-28T21:36:47.591Z,85.23
2022-11-28T21:39:17.630Z,86.91
2022-11-28T21:41:45.245Z,88.01
2022-11-28T21:44:12.876Z,85.42
2022-11-28T21:46:41.664Z,85.22
2022-11-28T21:49:08.982Z,87.09
2022-11-28T21:51:37.329Z,83.92
2022-11-28T21:54:04.813Z,83.51
2022-11-28T21:56:32.408Z,83.77
2022-11-28T21:59:00.004Z,84.84
2022-11-28T22:01:27.581Z,85.14
2022-11-28T22:03:59.135Z,82.54
2022-11-28T22:06:29.903Z,86.34
2022-11-28T22:08:57.938Z,82.73
2022-11-28T22:11:25.670Z,83.36
2022-11-28T22:13:53.114Z,86.09
2022-11-28T22:16:23.629Z,83.46
2022-11-28T22:18:53.573Z,83.50
2022-11-28T22:21:50.528Z,82.54
2022-11-28T22:24:09.006Z,82.63
2022-11-28T22:26:36.709Z,82.71
2022-11-28T22:29:04.487Z,82.27
2022-11-28T22:31:32.446Z,82.64
2022-11-28T22:34:00.119Z,82.62
2022-11-28T22:36:27.670Z,82.21
2022-11-28T22:38:56.970Z,81.81
2022-11-28T22:41:28.756Z,82.71
2022-11-28T22:44:00.191Z,84.50
2022-11-28T22:46:28.401Z,83.77
2022-11-28T22:48:56.055Z,83.01
2022-11-28T22:51:25.431Z,82.97
2022-11-28T22:53:54.845Z,84.12
2022-11-28T22:56:24.437Z,83.84
2022-11-28T22:58:52.112Z,84.15
2022-11-28T23:01:30.384Z,85.18
2022-11-28T23:03:58.283Z,86.38
2022-11-28T23:06:31.349Z,86.70
2022-11-28T23:08:59.802Z,83.67
2022-11-28T23:11:33.311Z,85.23
2022-11-28T23:14:01.480Z,85.61
2022-11-28T23:16:32.385Z,86.28
2022-11-28T23:19:03.477Z,86.40
2022-11-28T23:21:35.638Z,85.14
2022-11-28T23:24:04.733Z,85.09
2022-11-28T23:26:33.963Z,87.02
2022-11-28T23:29:04.221Z,86.21
2022-11-28T23:31:33.748Z,88.13
2022-11-28T23:34:01.644Z,89.59
2022-11-28T23:36:31.315Z,89.91
2022-11-28T23:39:01.441Z,89.81
2022-11-28T23:41:29.708Z,91.51
2022-11-28T23:43:57.838Z,88.67
2022-11-28T23:46:26.390Z,90.93
2022-11-28T23:48:53.935Z,91.66
2022-11-28T23:51:24.488Z,90.65
2022-11-28T23:53:52.433Z,88.63
2022-11-28T23:56:24.935Z,88.78
2022-11-28T23:58:53.622Z,88.97
